aviador You're here:

KSIK Decoded Metar

in
Report Time2018-05-26 15:55:00
UTC Time2018-05-26 15:48:54
Flight Rules mvfr MVFR
Wind210° at 04 kt
W.Decomp.*RWY 20: 3.9 kt HW 0.7 kt RCW
W.Rank210° ranks 3
Current wind is below 210° avg. (7.3)
Visibility9999 m
Phenomena:N/A
Clouds:Broken 018 Hf
Expected CloudBase > 2,000 ft AGL from Temp-Dew spread
Ceiling1,800 ft
Temp27°C
Dew Point22°C (74% RH)
Heat Index29.2°C
QNH1012 hPa
Raw Report
KSIK 261555Z AUTO 21004KT 10SM BKN018 27/22 A2988 RMK AO2=

Extra information for KSIK:More info

Social comments